createdAt,value
2022-08-27T00:00:46.749Z,98813.72
2022-08-27T00:01:54.718Z,98824.53
2022-08-27T00:03:04.392Z,98820.34
2022-08-27T00:04:11.951Z,98815.78
2022-08-27T00:05:20.364Z,98813.44
2022-08-27T00:06:28.058Z,98824.25
2022-08-27T00:07:36.124Z,98812.59
2022-08-27T00:08:47.914Z,98820.72
2022-08-27T00:09:54.598Z,98822.59
2022-08-27T00:11:06.042Z,98813.00
2022-08-27T00:12:12.807Z,98806.97
2022-08-27T00:13:21.179Z,98814.69
2022-08-27T00:14:31.672Z,98811.97
2022-08-27T00:15:39.368Z,98809.47
2022-08-27T00:16:45.109Z,98813.00
2022-08-27T00:17:51.629Z,98809.66
2022-08-27T00:18:58.442Z,98808.81
2022-08-27T00:20:08.282Z,98797.94
2022-08-27T00:21:15.200Z,98802.75
2022-08-27T00:22:20.258Z,98786.59
2022-08-27T00:23:28.364Z,98801.28
2022-08-27T00:24:38.576Z,98806.69
2022-08-27T00:25:57.215Z,98804.19
2022-08-27T00:27:09.135Z,98804.56
2022-08-27T00:28:19.806Z,98809.78
2022-08-27T00:29:29.870Z,98801.69
2022-08-27T00:30:38.958Z,98802.69
2022-08-27T00:31:51.887Z,98808.97
2022-08-27T00:33:00.389Z,98806.63
2022-08-27T00:34:09.292Z,98805.38
2022-08-27T00:35:19.259Z,98805.38
2022-08-27T00:36:27.150Z,98809.13
2022-08-27T00:37:36.941Z,98808.50
2022-08-27T00:38:47.209Z,98811.19
2022-08-27T00:39:59.147Z,98803.09
2022-08-27T00:41:12.595Z,98809.72
2022-08-27T00:42:23.911Z,98803.00
2022-08-27T00:43:49.062Z,98816.31
2022-08-27T00:45:03.425Z,98826.09
2022-08-27T00:47:05.093Z,98811.13
2022-08-27T00:48:18.309Z,98808.59
2022-08-27T00:49:38.603Z,98807.97
2022-08-27T00:50:54.826Z,98808.97
2022-08-27T00:52:48.224Z,98803.56
2022-08-27T00:54:01.235Z,98814.56
2022-08-27T00:55:15.744Z,98814.13
2022-08-27T00:56:33.665Z,98788.38
2022-08-27T00:58:05.093Z,98808.09
2022-08-27T00:59:19.541Z,98810.97
2022-08-27T01:00:28.988Z,98819.66
2022-08-27T01:01:59.533Z,98823.38
2022-08-27T01:03:13.672Z,98814.56
2022-08-27T01:04:23.175Z,98816.66
2022-08-27T01:05:40.842Z,98807.91
2022-08-27T01:06:47.688Z,98809.56
2022-08-27T01:08:05.261Z,98813.31
2022-08-27T01:09:19.342Z,98806.88
2022-08-27T01:10:31.193Z,98800.97
2022-08-27T01:11:37.240Z,98805.19
2022-08-27T01:12:53.243Z,98806.38
2022-08-27T01:14:01.370Z,98803.69
2022-08-27T01:15:20.087Z,98811.16
2022-08-27T01:16:40.545Z,98816.94
2022-08-27T01:17:48.584Z,98798.59
2022-08-27T01:18:59.554Z,98809.41
2022-08-27T01:20:33.231Z,98811.91
2022-08-27T01:22:20.385Z,98795.53
2022-08-27T01:23:55.734Z,98811.47
2022-08-27T01:25:13.294Z,98815.19
2022-08-27T01:26:19.116Z,98817.91
2022-08-27T01:27:31.905Z,98810.34
2022-08-27T01:28:43.307Z,98814.91
2022-08-27T01:29:55.935Z,98806.81
2022-08-27T01:31:06.100Z,98811.38
2022-08-27T01:32:22.166Z,98806.31
2022-08-27T01:33:29.614Z,98808.47
2022-08-27T01:34:34.620Z,98804.75
2022-08-27T01:35:45.191Z,98798.41
2022-08-27T01:36:51.120Z,98811.38
2022-08-27T01:38:03.255Z,98809.69
2022-08-27T01:39:16.233Z,98812.56
2022-08-27T01:40:27.850Z,98808.03
2022-08-27T01:41:38.493Z,98813.59
2022-08-27T01:42:51.731Z,98806.53
2022-08-27T01:44:00.164Z,98812.94
2022-08-27T01:45:16.139Z,98804.22
2022-08-27T01:46:28.456Z,98803.53
2022-08-27T01:47:36.541Z,98799.34
2022-08-27T01:48:46.505Z,98799.34
2022-08-27T01:49:57.979Z,98801.41
2022-08-27T01:51:02.957Z,98810.16
2022-08-27T01:52:13.375Z,98798.31
2022-08-27T01:53:27.152Z,98797.69
2022-08-27T01:54:33.923Z,98802.91
2022-08-27T01:55:40.329Z,98804.97
2022-08-27T01:56:48.767Z,98803.94
2022-08-27T01:57:55.561Z,98807.84
2022-08-27T01:59:01.057Z,98808.41
2022-08-27T02:00:14.689Z,98801.53
2022-08-27T02:01:20.478Z,98813.16
2022-08-27T02:02:26.221Z,98807.28
2022-08-27T02:03:31.432Z,98811.84
2022-08-27T02:04:37.074Z,98802.47
2022-08-27T02:05:49.683Z,98803.47
2022-08-27T02:06:54.262Z,98786.06
2022-08-27T02:08:00.335Z,98805.06
2022-08-27T02:09:05.389Z,98809.25
2022-08-27T02:10:14.434Z,98808.41
2022-08-27T02:11:20.309Z,98808.59
2022-08-27T02:12:25.353Z,98803.19
2022-08-27T02:13:30.277Z,98805.06
2022-08-27T02:14:36.085Z,98803.53
2022-08-27T02:15:44.115Z,98803.38
2022-08-27T02:16:52.431Z,98801.53
2022-08-27T02:17:57.843Z,98794.16
2022-08-27T02:19:02.666Z,98801.88
2022-08-27T02:20:09.941Z,98793.97
2022-08-27T02:21:15.683Z,98801.22
2022-08-27T02:22:21.111Z,98801.22
2022-08-27T02:23:27.065Z,98801.63
2022-08-27T02:24:32.091Z,98797.41
2022-08-27T02:25:37.308Z,98799.47
2022-08-27T02:26:42.011Z,98797.78
2022-08-27T02:27:48.580Z,98804.03
2022-08-27T02:28:53.102Z,98813.16
2022-08-27T02:29:58.017Z,98808.09
2022-08-27T02:31:03.444Z,98808.94
2022-08-27T02:32:17.591Z,98803.53
2022-08-27T02:33:28.268Z,98805.56
2022-08-27T02:34:32.844Z,98793.94
2022-08-27T02:35:44.662Z,98802.69
2022-08-27T02:36:49.230Z,98807.06
2022-08-27T02:37:54.725Z,98803.53
2022-08-27T02:39:00.151Z,98806.41
2022-08-27T02:40:07.869Z,98809.47
2022-08-27T02:41:12.963Z,98811.34
2022-08-27T02:42:17.684Z,98803.06
2022-08-27T02:43:25.208Z,98806.78
2022-08-27T02:44:31.721Z,98806.94
2022-08-27T02:45:38.467Z,98810.50
2022-08-27T02:46:43.277Z,98801.91
2022-08-27T02:47:49.562Z,98800.06
2022-08-27T02:48:54.080Z,98789.66
2022-08-27T02:49:58.989Z,98796.72
2022-08-27T02:51:07.505Z,98800.69
2022-08-27T02:52:12.410Z,98796.34
2022-08-27T02:53:18.966Z,98797.34
2022-08-27T02:54:26.678Z,98798.75
2022-08-27T02:55:31.801Z,98789.66
2022-08-27T02:56:38.062Z,98792.88
2022-08-27T02:57:44.443Z,98792.69
2022-08-27T02:58:49.297Z,98790.84
2022-08-27T02:59:55.402Z,98786.34
2022-08-27T03:01:05.625Z,98797.81
2022-08-27T03:02:17.933Z,98802.94
2022-08-27T03:03:23.309Z,98792.47
2022-08-27T03:04:29.581Z,98792.84
2022-08-27T03:05:34.629Z,98793.88
2022-08-27T03:06:50.494Z,98787.16
2022-08-27T03:07:57.460Z,98798.63
2022-08-27T03:09:11.680Z,98797.31
2022-08-27T03:10:20.518Z,98798.16
2022-08-27T03:11:25.441Z,98795.63
2022-08-27T03:12:29.927Z,98792.09
2022-08-27T03:13:39.389Z,98795.81
2022-08-27T03:14:45.218Z,98792.09
2022-08-27T03:15:50.310Z,98792.28
2022-08-27T03:16:56.706Z,98789.59
2022-08-27T03:18:20.176Z,98792.28
2022-08-27T03:19:25.309Z,98799.16
2022-08-27T03:20:30.317Z,98793.78
2022-08-27T03:21:36.990Z,98797.50
2022-08-27T03:22:42.519Z,98793.47
2022-08-27T03:23:50.119Z,98802.25
2022-08-27T03:24:55.867Z,98795.81
2022-08-27T03:26:04.974Z,98797.38
2022-08-27T03:27:10.490Z,98799.44
2022-08-27T03:28:22.592Z,98799.44
2022-08-27T03:29:28.724Z,98789.47
2022-08-27T03:30:33.242Z,98793.00
2022-08-27T03:31:38.853Z,98793.19
2022-08-27T03:32:43.679Z,98794.38
2022-08-27T03:33:48.431Z,98792.25
2022-08-27T03:34:54.086Z,98799.19
2022-08-27T03:36:00.334Z,98796.84
2022-08-27T03:37:05.417Z,98794.34
2022-08-27T03:38:11.302Z,98789.50
2022-08-27T03:39:15.904Z,98794.91
2022-08-27T03:40:21.763Z,98788.81
2022-08-27T03:41:45.480Z,98798.13
2022-08-27T03:42:52.887Z,98794.22
2022-08-27T03:43:58.351Z,98787.34
2022-08-27T03:45:04.966Z,98791.41
2022-08-27T03:46:10.425Z,98793.25
2022-08-27T03:47:16.326Z,98795.13
2022-08-27T03:48:23.104Z,98791.59
2022-08-27T03:49:29.398Z,98790.94
2022-08-27T03:50:42.332Z,98791.78
2022-08-27T03:51:47.698Z,98794.09
2022-08-27T03:52:53.162Z,98803.03
2022-08-27T03:53:58.118Z,98804.72
2022-08-27T03:55:05.099Z,98800.16
2022-08-27T03:56:11.864Z,98791.25
2022-08-27T03:57:18.055Z,98792.63
2022-08-27T03:58:22.163Z,98795.81
2022-08-27T03:59:26.710Z,98780.63
2022-08-27T04:00:32.855Z,98789.53
2022-08-27T04:01:39.736Z,98796.44
2022-08-27T04:02:49.200Z,98780.94
2022-08-27T04:03:53.554Z,98774.41
2022-08-27T04:04:59.617Z,98784.66
2022-08-27T04:06:04.945Z,98785.09
2022-08-27T04:07:10.758Z,98787.81
2022-08-27T04:08:15.213Z,98784.47
2022-08-27T04:09:20.031Z,98783.63
2022-08-27T04:10:24.452Z,98785.09
2022-08-27T04:11:29.787Z,98783.44
2022-08-27T04:12:34.702Z,98788.50
2022-08-27T04:13:41.518Z,98787.81
2022-08-27T04:14:45.952Z,98784.75
2022-08-27T04:15:53.486Z,98790.34
2022-08-27T04:16:58.421Z,98790.69
2022-08-27T04:18:04.702Z,98792.34
2022-08-27T04:19:10.483Z,98790.88
2022-08-27T04:20:35.805Z,98791.19
2022-08-27T04:21:41.345Z,98797.88
2022-08-27T04:22:46.489Z,98791.81
2022-08-27T04:23:51.256Z,98790.63
2022-08-27T04:24:58.208Z,98790.81
2022-08-27T04:26:07.814Z,98800.38
2022-08-27T04:27:12.133Z,98795.47
2022-08-27T04:28:17.562Z,98798.00
2022-08-27T04:29:22.602Z,98788.75
2022-08-27T04:30:26.973Z,98791.94
2022-08-27T04:31:32.057Z,98796.13
2022-08-27T04:32:38.180Z,98797.66
2022-08-27T04:33:43.935Z,98791.41
2022-08-27T04:35:01.211Z,98792.06
2022-08-27T04:36:11.476Z,98796.06
2022-08-27T04:37:23.218Z,98796.06
2022-08-27T04:38:29.401Z,98798.59
2022-08-27T04:39:34.473Z,98796.91
2022-08-27T04:40:58.342Z,98796.91
2022-08-27T04:42:03.249Z,98792.00
2022-08-27T04:43:07.556Z,98793.19
2022-08-27T04:44:14.003Z,98790.13
2022-08-27T04:45:18.958Z,98793.66
2022-08-27T04:46:31.779Z,98786.59
2022-08-27T04:47:36.928Z,98784.75
2022-08-27T04:48:44.620Z,98787.91
2022-08-27T04:49:49.750Z,98784.19
2022-08-27T04:50:54.404Z,98780.47
2022-08-27T04:51:59.504Z,98781.31
2022-08-27T04:53:05.117Z,98776.38
2022-08-27T04:54:12.328Z,98775.34
2022-08-27T04:55:18.254Z,98785.59
2022-08-27T04:56:25.977Z,98789.72
2022-08-27T04:57:31.107Z,98788.94
2022-08-27T04:58:36.912Z,98789.78
2022-08-27T04:59:41.770Z,98787.94
2022-08-27T05:00:53.719Z,98789.06
2022-08-27T05:02:00.005Z,98785.53
2022-08-27T05:03:08.422Z,98795.28
2022-08-27T05:04:19.638Z,98789.06
2022-08-27T05:05:28.924Z,98795.78
2022-08-27T05:06:37.589Z,98797.63
2022-08-27T05:07:42.432Z,98799.94
2022-08-27T05:08:51.647Z,98797.44
2022-08-27T05:09:56.359Z,98798.75
2022-08-27T05:11:03.507Z,98796.72
2022-08-27T05:12:09.154Z,98792.81
2022-08-27T05:13:15.869Z,98795.97
2022-08-27T05:14:22.517Z,98797.31
2022-08-27T05:15:27.901Z,98788.19
2022-08-27T05:16:33.571Z,98799.47
2022-08-27T05:17:39.537Z,98794.50
2022-08-27T05:18:48.114Z,98787.94
2022-08-27T05:19:54.909Z,98782.53
2022-08-27T05:21:00.930Z,98797.97
2022-08-27T05:22:06.096Z,98798.91
2022-08-27T05:23:12.328Z,98794.81
2022-08-27T05:24:19.778Z,98793.53
2022-08-27T05:25:27.482Z,98801.69
2022-08-27T05:26:37.227Z,98796.38
2022-08-27T05:27:42.243Z,98807.28
2022-08-27T05:28:46.674Z,98802.81
2022-08-27T05:29:51.006Z,98802.69
2022-08-27T05:31:08.898Z,98805.13
2022-08-27T05:32:13.848Z,98805.31
2022-08-27T05:33:26.034Z,98802.50
2022-08-27T05:34:32.464Z,98789.81
2022-08-27T05:35:52.899Z,98805.44
2022-08-27T05:37:01.633Z,98795.53
2022-08-27T05:38:07.374Z,98800.66
2022-08-27T05:39:11.710Z,98801.34
2022-08-27T05:40:17.818Z,98803.09
2022-08-27T05:41:34.170Z,98803.22
2022-08-27T05:42:39.126Z,98798.31
2022-08-27T05:43:49.929Z,98794.47
2022-08-27T05:44:56.668Z,98793.31
2022-08-27T05:46:08.062Z,98795.59
2022-08-27T05:47:13.299Z,98786.97
2022-08-27T05:48:19.274Z,98789.72
2022-08-27T05:49:25.318Z,98779.56
2022-08-27T05:50:30.016Z,98789.19
2022-08-27T05:51:37.906Z,98767.53
2022-08-27T05:52:42.967Z,98784.19
2022-08-27T05:53:47.979Z,98781.72
2022-08-27T05:54:55.850Z,98783.66
2022-08-27T05:56:01.234Z,98785.41
2022-08-27T05:57:08.403Z,98790.88
2022-08-27T05:58:34.163Z,98743.28
2022-08-27T05:59:57.457Z,98785.34
2022-08-27T06:01:09.620Z,98784.31
2022-08-27T06:02:15.365Z,98785.56
2022-08-27T06:03:21.317Z,98789.94
2022-08-27T06:04:27.117Z,98774.13
2022-08-27T06:05:32.151Z,98781.41
2022-08-27T06:06:40.798Z,98772.84
2022-08-27T06:07:45.834Z,98777.66
2022-08-27T06:08:54.110Z,98780.97
2022-08-27T06:10:00.279Z,98781.78
2022-08-27T06:11:08.954Z,98780.50
2022-08-27T06:12:14.872Z,98781.31
2022-08-27T06:13:20.367Z,98785.44
2022-08-27T06:14:26.648Z,98783.31
2022-08-27T06:15:32.308Z,98786.13
2022-08-27T06:16:40.031Z,98778.53
2022-08-27T06:17:44.526Z,98782.19
2022-08-27T06:18:51.329Z,98781.25
2022-08-27T06:19:57.361Z,98779.88
2022-08-27T06:21:05.842Z,98787.31
2022-08-27T06:22:11.129Z,98783.66
2022-08-27T06:23:15.913Z,98789.59
2022-08-27T06:24:24.137Z,98796.59
2022-08-27T06:25:29.605Z,98798.28
2022-08-27T06:26:36.210Z,98797.69
2022-08-27T06:27:41.998Z,98798.75
2022-08-27T06:28:46.897Z,98803.50
2022-08-27T06:29:52.477Z,98804.72
2022-08-27T06:31:26.602Z,98800.53
2022-08-27T06:32:32.037Z,98798.47
2022-08-27T06:33:38.173Z,98802.44
2022-08-27T06:34:43.383Z,98806.75
2022-08-27T06:35:49.382Z,98805.03
2022-08-27T06:36:56.500Z,98805.78
2022-08-27T06:38:04.416Z,98804.47
2022-08-27T06:39:14.434Z,98803.19
2022-08-27T06:40:23.883Z,98817.47
2022-08-27T06:41:30.361Z,98787.06
2022-08-27T06:42:39.015Z,98801.50
2022-08-27T06:43:46.423Z,98794.34
2022-08-27T06:44:51.255Z,98793.97
2022-08-27T06:45:57.263Z,98797.34
2022-08-27T06:47:04.820Z,98800.09
2022-08-27T06:48:10.211Z,98787.31
2022-08-27T06:49:19.180Z,98791.84
2022-08-27T06:50:27.376Z,98803.50
2022-08-27T06:51:36.264Z,98797.50
2022-08-27T06:52:43.620Z,98800.91
2022-08-27T06:53:51.954Z,98804.75
2022-08-27T06:54:57.471Z,98788.56
2022-08-27T06:56:03.669Z,98797.00
2022-08-27T06:57:10.526Z,98803.59
2022-08-27T06:58:22.002Z,98802.63
2022-08-27T06:59:28.423Z,98802.31
2022-08-27T07:00:33.959Z,98801.25
2022-08-27T07:01:44.277Z,98797.50
2022-08-27T07:02:56.369Z,98800.41
2022-08-27T07:04:05.723Z,98803.88
2022-08-27T07:05:12.484Z,98801.81
2022-08-27T07:06:18.850Z,98798.50
2022-08-27T07:07:30.197Z,98797.66
2022-08-27T07:08:43.782Z,98811.41
2022-08-27T07:10:00.473Z,98802.59
2022-08-27T07:11:10.071Z,98796.91
2022-08-27T07:12:17.032Z,98801.00
2022-08-27T07:13:25.285Z,98812.38
2022-08-27T07:14:37.149Z,98801.56
2022-08-27T07:15:44.706Z,98804.63
2022-08-27T07:16:51.704Z,98792.84
2022-08-27T07:18:00.410Z,98801.56
2022-08-27T07:19:07.302Z,98798.25
2022-08-27T07:20:14.739Z,98790.72
2022-08-27T07:21:20.578Z,98796.91
2022-08-27T07:22:26.426Z,98797.81
2022-08-27T07:23:34.083Z,98801.00
2022-08-27T07:24:38.854Z,98798.09
2022-08-27T07:25:44.413Z,98791.66
2022-08-27T07:26:51.178Z,98784.34
2022-08-27T07:27:56.714Z,98801.81
2022-08-27T07:29:04.740Z,98799.97
2022-08-27T07:30:16.579Z,98795.63
2022-08-27T07:31:25.794Z,98787.53
2022-08-27T07:32:33.039Z,98802.53
2022-08-27T07:33:46.016Z,98802.63
2022-08-27T07:35:00.864Z,98804.16
2022-08-27T07:36:10.881Z,98802.63
2022-08-27T07:37:16.790Z,98812.56
2022-08-27T07:38:23.466Z,98819.81
2022-08-27T07:39:31.375Z,98809.50
2022-08-27T07:40:38.550Z,98813.53
2022-08-27T07:42:05.887Z,98814.72
2022-08-27T07:43:30.693Z,98810.03
2022-08-27T07:44:42.399Z,98807.78
2022-08-27T07:45:57.833Z,98810.03
2022-08-27T07:47:04.668Z,98810.50
2022-08-27T07:48:12.279Z,98812.94
2022-08-27T07:49:18.934Z,98797.25
2022-08-27T07:50:26.164Z,98805.16
2022-08-27T07:51:33.333Z,98813.13
2022-08-27T07:52:42.251Z,98812.50
2022-08-27T07:53:50.158Z,98813.44
2022-08-27T07:54:57.710Z,98821.31
2022-08-27T07:56:09.184Z,98816.97
2022-08-27T07:57:16.221Z,98819.59
2022-08-27T07:58:21.716Z,98820.16
2022-08-27T07:59:29.531Z,98825.16
2022-08-27T08:00:36.040Z,98832.38
2022-08-27T08:01:48.482Z,98832.84
2022-08-27T08:02:53.365Z,98823.53
2022-08-27T08:03:58.508Z,98827.41
2022-08-27T08:05:03.461Z,98830.47
2022-08-27T08:06:14.698Z,98829.03
2022-08-27T08:07:19.389Z,98822.09
2022-08-27T08:08:25.422Z,98826.13
2022-08-27T08:09:34.683Z,98824.41
2022-08-27T08:10:43.419Z,98827.41
2022-08-27T08:11:49.327Z,98824.38
2022-08-27T08:12:55.422Z,98828.44
2022-08-27T08:14:02.767Z,98827.19
2022-08-27T08:15:11.195Z,98831.72
2022-08-27T08:16:16.583Z,98827.22
2022-08-27T08:17:23.506Z,98835.50
2022-08-27T08:18:31.238Z,98829.25
2022-08-27T08:19:36.215Z,98831.50
2022-08-27T08:20:57.557Z,98824.16
2022-08-27T08:22:06.089Z,98832.00
2022-08-27T08:23:10.787Z,98836.44
2022-08-27T08:24:16.040Z,98830.78
2022-08-27T08:25:23.448Z,98837.63
2022-08-27T08:26:30.089Z,98836.50
2022-08-27T08:27:36.716Z,98835.13
2022-08-27T08:28:42.019Z,98835.41
2022-08-27T08:29:48.482Z,98843.88
2022-08-27T08:30:57.993Z,98837.84
2022-08-27T08:32:06.237Z,98844.59
2022-08-27T08:33:11.040Z,98844.06
2022-08-27T08:34:16.108Z,98835.19
2022-08-27T08:35:25.255Z,98842.59
2022-08-27T08:36:30.815Z,98840.03
2022-08-27T08:37:38.881Z,98850.09
2022-08-27T08:38:48.790Z,98846.91
2022-08-27T08:39:55.797Z,98839.13
2022-08-27T08:41:02.332Z,98835.13
2022-08-27T08:42:26.098Z,98841.03
2022-08-27T08:43:40.002Z,98841.34
2022-08-27T08:44:54.085Z,98840.31
2022-08-27T08:46:18.663Z,98840.41
2022-08-27T08:47:57.459Z,98837.84
2022-08-27T08:49:45.361Z,98839.00
2022-08-27T08:51:16.961Z,98844.28
2022-08-27T08:52:55.688Z,98849.16
2022-08-27T08:54:10.356Z,98847.72
2022-08-27T08:55:49.574Z,98849.28
2022-08-27T08:57:25.813Z,98843.16
2022-08-27T08:59:17.002Z,98850.13
2022-08-27T09:00:22.262Z,98848.53
2022-08-27T09:01:30.037Z,98852.19
2022-08-27T09:02:35.303Z,98828.91
2022-08-27T09:03:49.132Z,98846.41
2022-08-27T09:04:56.863Z,98843.00
2022-08-27T09:06:19.079Z,98844.41
2022-08-27T09:08:32.931Z,98841.94
2022-08-27T09:10:08.618Z,98838.84
2022-08-27T09:11:30.505Z,98841.34
2022-08-27T09:12:35.505Z,98831.56
2022-08-27T09:14:31.684Z,98840.28
2022-08-27T09:15:40.101Z,98846.81
2022-08-27T09:16:47.101Z,98842.13
2022-08-27T09:17:52.203Z,98838.59
2022-08-27T09:19:06.156Z,98844.84
2022-08-27T09:20:14.243Z,98841.94
2022-08-27T09:21:43.951Z,98841.38
2022-08-27T09:23:05.854Z,98843.34
2022-08-27T09:24:24.255Z,98821.34
2022-08-27T09:25:38.114Z,98835.34
2022-08-27T09:26:46.704Z,98841.56
2022-08-27T09:27:57.509Z,98841.44
2022-08-27T09:29:22.263Z,98838.47
2022-08-27T09:30:33.317Z,98841.22
2022-08-27T09:31:42.455Z,98831.81
2022-08-27T09:33:01.091Z,98821.06
2022-08-27T09:34:06.295Z,98835.47
2022-08-27T09:35:14.061Z,98836.81
2022-08-27T09:36:23.702Z,98838.47
2022-08-27T09:37:44.592Z,98840.97
2022-08-27T09:39:08.106Z,98846.09
2022-08-27T09:40:24.819Z,98842.50
2022-08-27T09:41:43.545Z,98844.81
2022-08-27T09:42:57.615Z,98842.88
2022-08-27T09:44:15.162Z,98840.03
2022-08-27T09:45:30.998Z,98838.53
2022-08-27T09:46:36.587Z,98836.50
2022-08-27T09:47:50.502Z,98837.19
2022-08-27T09:48:58.131Z,98823.22
2022-08-27T09:50:09.438Z,98831.56
2022-08-27T09:51:24.105Z,98838.81
2022-08-27T09:52:59.518Z,98836.13
2022-08-27T09:54:05.156Z,98826.75
2022-08-27T09:55:11.831Z,98827.09
2022-08-27T09:56:30.392Z,98819.13
2022-08-27T09:57:42.174Z,98826.81
2022-08-27T09:59:12.485Z,98827.38
2022-08-27T10:00:18.450Z,98830.44
2022-08-27T10:01:29.329Z,98823.25
2022-08-27T10:02:34.160Z,98827.06
2022-08-27T10:03:38.241Z,98828.69
2022-08-27T10:04:53.609Z,98827.56
2022-08-27T10:05:58.668Z,98824.81
2022-08-27T10:07:54.020Z,98828.28
2022-08-27T10:09:22.307Z,98822.75
2022-08-27T10:11:17.712Z,98822.41
2022-08-27T10:13:18.124Z,98821.28
2022-08-27T10:14:41.897Z,98818.97
2022-08-27T10:16:17.975Z,98808.44
2022-08-27T10:17:34.686Z,98815.50
2022-08-27T10:18:54.678Z,98816.25
2022-08-27T10:20:30.606Z,98814.22
2022-08-27T10:21:57.192Z,98808.88
2022-08-27T10:23:29.775Z,98822.88
2022-08-27T10:25:03.394Z,98817.28
2022-08-27T10:26:25.104Z,98814.13
2022-08-27T10:27:57.122Z,98806.00
2022-08-27T10:29:22.434Z,98820.81
2022-08-27T10:30:40.292Z,98824.31
2022-08-27T10:32:16.577Z,98820.09
2022-08-27T10:33:59.183Z,98820.25
2022-08-27T10:35:54.849Z,98801.31
2022-08-27T10:37:24.868Z,98817.22
2022-08-27T10:38:54.452Z,98811.28
2022-08-27T10:40:52.518Z,98822.72
2022-08-27T10:42:18.501Z,98816.03
2022-08-27T10:44:05.778Z,98810.16
2022-08-27T10:45:43.064Z,98818.03
2022-08-27T10:47:19.617Z,98813.81
2022-08-27T10:48:41.702Z,98804.41
2022-08-27T10:50:16.091Z,98805.66
2022-08-27T10:51:38.467Z,98795.72
2022-08-27T10:53:09.736Z,98802.28
2022-08-27T10:54:39.030Z,98804.44
2022-08-27T10:55:52.638Z,98797.16
2022-08-27T10:57:39.923Z,98799.31
2022-08-27T10:59:33.711Z,98794.00
2022-08-27T11:01:16.066Z,98797.00
2022-08-27T11:03:01.722Z,98797.50
2022-08-27T11:04:19.143Z,98774.22
2022-08-27T11:05:49.604Z,98783.13
2022-08-27T11:07:12.951Z,98796.81
2022-08-27T11:08:53.684Z,98797.91
2022-08-27T11:10:09.903Z,98795.16
2022-08-27T11:13:39.923Z,98798.72
2022-08-27T11:15:17.173Z,98796.47
2022-08-27T11:16:48.909Z,98788.50
2022-08-27T11:18:19.007Z,98794.50
2022-08-27T11:19:54.973Z,98792.84
2022-08-27T11:21:11.086Z,98796.91
2022-08-27T11:22:38.068Z,98797.25
2022-08-27T11:24:02.959Z,98798.56
2022-08-27T11:25:23.070Z,98800.47
2022-08-27T11:26:32.232Z,98803.22
2022-08-27T11:27:40.265Z,98794.66
2022-08-27T11:28:53.099Z,98795.41
2022-08-27T11:30:27.473Z,98798.66
2022-08-27T11:31:53.621Z,98802.94
2022-08-27T11:33:13.885Z,98797.97
2022-08-27T11:34:48.624Z,98797.63
2022-08-27T11:36:11.336Z,98805.13
2022-08-27T11:37:43.153Z,98803.47
2022-08-27T11:39:34.185Z,98810.59
2022-08-27T11:40:57.651Z,98804.78
2022-08-27T11:42:10.813Z,98798.47
2022-08-27T11:43:26.543Z,98796.81
2022-08-27T11:44:32.306Z,98797.06
2022-08-27T11:45:58.366Z,98795.88
2022-08-27T11:47:25.283Z,98802.78
2022-08-27T11:48:37.222Z,98791.84
2022-08-27T11:49:57.928Z,98790.19
2022-08-27T11:51:08.276Z,98779.13
2022-08-27T11:52:23.541Z,98778.44
2022-08-27T11:53:49.022Z,98782.34
2022-08-27T11:55:29.409Z,98779.13
2022-08-27T11:56:44.526Z,98785.44
2022-08-27T11:58:29.773Z,98779.38
2022-08-27T11:59:37.890Z,98783.25
2022-08-27T12:00:45.016Z,98783.53
2022-08-27T12:01:54.590Z,98768.91
2022-08-27T12:03:09.449Z,98782.13
2022-08-27T12:04:32.204Z,98782.34
2022-08-27T12:05:45.724Z,98756.91
2022-08-27T12:07:18.064Z,98779.03
2022-08-27T12:08:23.032Z,98776.03
2022-08-27T12:09:29.256Z,98780.81
2022-08-27T12:11:07.656Z,98777.00
2022-08-27T12:12:47.598Z,98774.50
2022-08-27T12:14:15.321Z,98782.13
2022-08-27T12:15:58.901Z,98781.06
2022-08-27T12:17:33.276Z,98777.50
2022-08-27T12:19:04.457Z,98770.09
2022-08-27T12:20:34.960Z,98773.09
2022-08-27T12:22:21.756Z,98779.66
2022-08-27T12:23:51.801Z,98771.19
2022-08-27T12:24:59.899Z,98764.06
2022-08-27T12:26:36.328Z,98762.41
2022-08-27T12:27:41.041Z,98766.78
2022-08-27T12:28:45.858Z,98764.06
2022-08-27T12:29:54.905Z,98767.88
2022-08-27T12:30:59.919Z,98760.75
2022-08-27T12:32:36.374Z,98766.53
2022-08-27T12:33:47.446Z,98762.41
2022-08-27T12:35:11.415Z,98762.97
2022-08-27T12:36:28.698Z,98760.22
2022-08-27T12:37:40.916Z,98755.59
2022-08-27T12:38:56.191Z,98742.31
2022-08-27T12:40:13.198Z,98766.28
2022-08-27T12:41:43.783Z,98755.31
2022-08-27T12:42:49.739Z,98758.69
2022-08-27T12:44:09.312Z,98757.25
2022-08-27T12:45:25.914Z,98736.81
2022-08-27T12:46:31.546Z,98744.16
2022-08-27T12:47:50.638Z,98752.38
2022-08-27T12:49:38.180Z,98741.63
2022-08-27T12:50:31.564Z,98747.38
2022-08-27T12:51:41.402Z,98743.31
2022-08-27T12:53:16.468Z,98744.97
2022-08-27T12:54:38.464Z,98740.59
2022-08-27T12:56:31.135Z,98739.03
2022-08-27T12:58:13.532Z,98748.66
2022-08-27T12:59:47.126Z,98747.81
2022-08-27T13:01:45.783Z,98746.50
2022-08-27T13:02:59.528Z,98744.34
2022-08-27T13:04:18.274Z,98745.91
2022-08-27T13:05:25.353Z,98747.81
2022-08-27T13:06:35.802Z,98743.66
2022-08-27T13:07:47.480Z,98738.69
2022-08-27T13:09:02.621Z,98744.97
2022-08-27T13:10:24.666Z,98747.72
2022-08-27T13:11:44.510Z,98740.22
2022-08-27T13:13:05.431Z,98742.72
2022-08-27T13:14:15.265Z,98738.91
2022-08-27T13:15:21.045Z,98731.19
2022-08-27T13:16:26.064Z,98736.97
2022-08-27T13:17:30.737Z,98727.94
2022-08-27T13:18:37.358Z,98724.97
2022-08-27T13:20:02.967Z,98710.84
2022-08-27T13:21:47.564Z,98722.59
2022-08-27T13:22:54.842Z,98717.13
2022-08-27T13:24:10.802Z,98714.84
2022-08-27T13:25:42.363Z,98717.59
2022-08-27T13:26:58.223Z,98716.28
2022-08-27T13:28:14.638Z,98718.78
2022-08-27T13:29:20.295Z,98720.44
2022-08-27T13:30:35.822Z,98719.13
2022-08-27T13:31:41.813Z,98723.81
2022-08-27T13:32:48.822Z,98723.00
2022-08-27T13:34:00.428Z,98716.38
2022-08-27T13:35:07.823Z,98717.25
2022-08-27T13:36:13.451Z,98720.53
2022-08-27T13:37:42.142Z,98718.34
2022-08-27T13:38:50.290Z,98708.47
2022-08-27T13:39:58.627Z,98715.56
2022-08-27T13:41:10.212Z,98715.78
2022-08-27T13:42:16.092Z,98713.38
2022-08-27T13:43:38.285Z,98704.72
2022-08-27T13:44:48.301Z,98716.94
2022-08-27T13:45:59.827Z,98706.72
2022-08-27T13:47:26.934Z,98707.34
2022-08-27T13:48:33.472Z,98717.53
2022-08-27T13:49:40.122Z,98719.44
2022-08-27T13:50:56.576Z,98717.78
2022-08-27T13:52:09.693Z,98711.47
2022-08-27T13:53:47.376Z,98717.78
2022-08-27T13:55:06.432Z,98709.56
2022-08-27T13:56:11.558Z,98693.56
2022-08-27T13:57:28.840Z,98704.34
2022-08-27T13:58:36.359Z,98707.91
2022-08-27T13:59:43.354Z,98695.88
2022-08-27T14:00:48.512Z,98690.38
2022-08-27T14:02:33.734Z,98703.56
2022-08-27T14:04:03.638Z,98696.38
2022-08-27T14:05:29.826Z,98702.75
2022-08-27T14:06:44.965Z,98709.31
2022-08-27T14:07:58.778Z,98702.69
2022-08-27T14:09:31.014Z,98701.09
2022-08-27T14:10:45.458Z,98698.94
2022-08-27T14:11:50.239Z,98697.88
2022-08-27T14:13:07.436Z,98703.34
2022-08-27T14:14:14.145Z,98703.66
2022-08-27T14:15:43.382Z,98703.09
2022-08-27T14:17:03.812Z,98705.31
2022-08-27T14:18:57.366Z,98701.50
2022-08-27T14:20:04.413Z,98692.31
2022-08-27T14:21:10.733Z,98704.19
2022-08-27T14:22:16.529Z,98697.63
2022-08-27T14:23:21.963Z,98704.50